sensor_id;sensor_type;location;lat;lon;timestamp;P1;durP1;ratioP1;P2;durP2;ratioP2
76127;SDS011;64873;50.102;14.434;2023-11-22T00:00:06;3.47;;;1.08;;
76127;SDS011;64873;50.102;14.434;2023-11-22T00:02:35;2.78;;;0.70;;
76127;SDS011;64873;50.102;14.434;2023-11-22T00:05:01;0.85;;;0.63;;
76127;SDS011;64873;50.102;14.434;2023-11-22T00:07:26;2.25;;;1.30;;
76127;SDS011;64873;50.102;14.434;2023-11-22T00:09:55;1.05;;;0.75;;
76127;SDS011;64873;50.102;14.434;2023-11-22T00:12:21;2.10;;;1.30;;
76127;SDS011;64873;50.102;14.434;2023-11-22T00:14:48;2.30;;;1.60;;
76127;SDS011;64873;50.102;14.434;2023-11-22T00:17:13;2.13;;;1.30;;
76127;SDS011;64873;50.102;14.434;2023-11-22T00:19:39;3.03;;;1.13;;
76127;SDS011;64873;50.102;14.434;2023-11-22T00:22:05;1.10;;;0.90;;
76127;SDS011;64873;50.102;14.434;2023-11-22T00:24:38;1.58;;;1.05;;
76127;SDS011;64873;50.102;14.434;2023-11-22T00:27:04;4.07;;;1.33;;
76127;SDS011;64873;50.102;14.434;2023-11-22T00:29:29;1.38;;;0.82;;
76127;SDS011;64873;50.102;14.434;2023-11-22T00:31:55;2.58;;;1.30;;
76127;SDS011;64873;50.102;14.434;2023-11-22T00:34:21;1.55;;;0.95;;
76127;SDS011;64873;50.102;14.434;2023-11-22T00:36:47;1.80;;;1.45;;
76127;SDS011;64873;50.102;14.434;2023-11-22T00:39:13;4.15;;;1.75;;
76127;SDS011;64873;50.102;14.434;2023-11-22T00:41:39;2.42;;;1.60;;
76127;SDS011;64873;50.102;14.434;2023-11-22T00:44:05;2.72;;;1.63;;
76127;SDS011;64873;50.102;14.434;2023-11-22T00:46:34;1.70;;;1.30;;
76127;SDS011;64873;50.102;14.434;2023-11-22T00:48:59;1.92;;;1.30;;
76127;SDS011;64873;50.102;14.434;2023-11-22T00:51:25;3.08;;;1.73;;
76127;SDS011;64873;50.102;14.434;2023-11-22T00:53:51;3.13;;;1.42;;
76127;SDS011;64873;50.102;14.434;2023-11-22T00:56:17;2.85;;;1.83;;
76127;SDS011;64873;50.102;14.434;2023-11-22T00:58:42;2.65;;;1.73;;
76127;SDS011;64873;50.102;14.434;2023-11-22T01:01:07;3.97;;;1.52;;
76127;SDS011;64873;50.102;14.434;2023-11-22T01:03:33;3.63;;;2.13;;
76127;SDS011;64873;50.102;14.434;2023-11-22T01:06:00;1.52;;;1.15;;
76127;SDS011;64873;50.102;14.434;2023-11-22T01:08:25;1.98;;;1.25;;
76127;SDS011;64873;50.102;14.434;2023-11-22T01:10:51;3.35;;;1.83;;
76127;SDS011;64873;50.102;14.434;2023-11-22T01:13:16;2.55;;;2.15;;
76127;SDS011;64873;50.102;14.434;2023-11-22T01:15:43;3.88;;;2.60;;
76127;SDS011;64873;50.102;14.434;2023-11-22T01:18:09;4.95;;;2.45;;
76127;SDS011;64873;50.102;14.434;2023-11-22T01:20:35;2.13;;;1.50;;
76127;SDS011;64873;50.102;14.434;2023-11-22T01:23:00;3.70;;;2.22;;
76127;SDS011;64873;50.102;14.434;2023-11-22T01:25:26;4.68;;;2.65;;
76127;SDS011;64873;50.102;14.434;2023-11-22T01:27:53;1.80;;;1.27;;
76127;SDS011;64873;50.102;14.434;2023-11-22T01:30:18;5.88;;;2.70;;
76127;SDS011;64873;50.102;14.434;2023-11-22T01:32:44;3.25;;;2.10;;
76127;SDS011;64873;50.102;14.434;2023-11-22T01:35:10;5.38;;;3.05;;
76127;SDS011;64873;50.102;14.434;2023-11-22T01:37:35;5.82;;;2.85;;
76127;SDS011;64873;50.102;14.434;2023-11-22T01:40:00;4.68;;;2.97;;
76127;SDS011;64873;50.102;14.434;2023-11-22T01:42:28;4.57;;;2.33;;
76127;SDS011;64873;50.102;14.434;2023-11-22T01:44:54;5.78;;;3.50;;
76127;SDS011;64873;50.102;14.434;2023-11-22T01:47:19;7.10;;;4.43;;
76127;SDS011;64873;50.102;14.434;2023-11-22T01:49:45;4.40;;;2.90;;
76127;SDS011;64873;50.102;14.434;2023-11-22T01:52:11;3.63;;;2.53;;
76127;SDS011;64873;50.102;14.434;2023-11-22T01:54:37;9.43;;;5.70;;
76127;SDS011;64873;50.102;14.434;2023-11-22T01:57:03;5.60;;;3.53;;
76127;SDS011;64873;50.102;14.434;2023-11-22T01:59:32;7.35;;;4.32;;
76127;SDS011;64873;50.102;14.434;2023-11-22T02:01:58;5.45;;;3.28;;
76127;SDS011;64873;50.102;14.434;2023-11-22T02:04:24;8.10;;;3.95;;
76127;SDS011;64873;50.102;14.434;2023-11-22T02:06:50;8.35;;;4.80;;
76127;SDS011;64873;50.102;14.434;2023-11-22T02:09:16;10.93;;;5.20;;
76127;SDS011;64873;50.102;14.434;2023-11-22T02:11:42;5.55;;;3.90;;
76127;SDS011;64873;50.102;14.434;2023-11-22T02:14:10;4.50;;;2.95;;
76127;SDS011;64873;50.102;14.434;2023-11-22T02:16:36;5.90;;;3.38;;
76127;SDS011;64873;50.102;14.434;2023-11-22T02:19:02;7.10;;;4.38;;
76127;SDS011;64873;50.102;14.434;2023-11-22T02:21:30;9.07;;;5.15;;
76127;SDS011;64873;50.102;14.434;2023-11-22T02:23:55;5.65;;;3.55;;
76127;SDS011;64873;50.102;14.434;2023-11-22T02:26:21;5.55;;;3.40;;
76127;SDS011;64873;50.102;14.434;2023-11-22T02:28:46;8.05;;;4.53;;
76127;SDS011;64873;50.102;14.434;2023-11-22T02:31:13;9.15;;;4.60;;
76127;SDS011;64873;50.102;14.434;2023-11-22T02:33:38;4.05;;;2.95;;
76127;SDS011;64873;50.102;14.434;2023-11-22T02:36:04;6.65;;;4.03;;
76127;SDS011;64873;50.102;14.434;2023-11-22T02:38:32;8.82;;;4.53;;
76127;SDS011;64873;50.102;14.434;2023-11-22T02:41:00;6.65;;;3.42;;
76127;SDS011;64873;50.102;14.434;2023-11-22T02:43:26;9.68;;;4.78;;
76127;SDS011;64873;50.102;14.434;2023-11-22T02:45:51;4.07;;;2.60;;
76127;SDS011;64873;50.102;14.434;2023-11-22T02:48:17;5.15;;;3.13;;
76127;SDS011;64873;50.102;14.434;2023-11-22T02:50:43;3.17;;;2.17;;
76127;SDS011;64873;50.102;14.434;2023-11-22T02:53:09;3.75;;;2.38;;
76127;SDS011;64873;50.102;14.434;2023-11-22T02:55:35;4.82;;;2.38;;
76127;SDS011;64873;50.102;14.434;2023-11-22T02:58:00;4.50;;;2.70;;
76127;SDS011;64873;50.102;14.434;2023-11-22T03:00:27;4.47;;;3.88;;
76127;SDS011;64873;50.102;14.434;2023-11-22T03:02:54;4.88;;;2.53;;
76127;SDS011;64873;50.102;14.434;2023-11-22T03:05:21;5.30;;;2.70;;
76127;SDS011;64873;50.102;14.434;2023-11-22T03:07:47;3.92;;;2.83;;
76127;SDS011;64873;50.102;14.434;2023-11-22T03:10:16;7.93;;;3.53;;
76127;SDS011;64873;50.102;14.434;2023-11-22T03:12:43;5.88;;;3.15;;
76127;SDS011;64873;50.102;14.434;2023-11-22T03:15:08;7.40;;;3.85;;
76127;SDS011;64873;50.102;14.434;2023-11-22T03:17:34;4.18;;;2.30;;
76127;SDS011;64873;50.102;14.434;2023-11-22T03:20:00;4.68;;;2.78;;
76127;SDS011;64873;50.102;14.434;2023-11-22T03:22:26;9.25;;;4.22;;
76127;SDS011;64873;50.102;14.434;2023-11-22T03:24:55;4.32;;;2.40;;
76127;SDS011;64873;50.102;14.434;2023-11-22T03:27:21;7.63;;;3.90;;
76127;SDS011;64873;50.102;14.434;2023-11-22T03:29:47;6.50;;;3.50;;
76127;SDS011;64873;50.102;14.434;2023-11-22T03:32:13;9.63;;;4.30;;
76127;SDS011;64873;50.102;14.434;2023-11-22T03:34:38;9.98;;;5.18;;
76127;SDS011;64873;50.102;14.434;2023-11-22T03:37:03;4.38;;;2.80;;
76127;SDS011;64873;50.102;14.434;2023-11-22T03:39:29;7.03;;;4.43;;
76127;SDS011;64873;50.102;14.434;2023-11-22T03:41:55;8.90;;;5.05;;
76127;SDS011;64873;50.102;14.434;2023-11-22T03:44:20;5.38;;;3.42;;
76127;SDS011;64873;50.102;14.434;2023-11-22T03:46:46;6.03;;;3.88;;
76127;SDS011;64873;50.102;14.434;2023-11-22T03:49:11;11.43;;;6.15;;
76127;SDS011;64873;50.102;14.434;2023-11-22T03:51:38;6.82;;;4.82;;
76127;SDS011;64873;50.102;14.434;2023-11-22T03:54:04;6.18;;;3.50;;
76127;SDS011;64873;50.102;14.434;2023-11-22T03:56:30;9.77;;;5.85;;
76127;SDS011;64873;50.102;14.434;2023-11-22T03:58:55;10.00;;;5.25;;
76127;SDS011;64873;50.102;14.434;2023-11-22T04:01:21;6.15;;;3.53;;
76127;SDS011;64873;50.102;14.434;2023-11-22T04:03:47;8.50;;;4.70;;
76127;SDS011;64873;50.102;14.434;2023-11-22T04:06:16;8.05;;;4.78;;
76127;SDS011;64873;50.102;14.434;2023-11-22T04:08:46;12.23;;;7.35;;
76127;SDS011;64873;50.102;14.434;2023-11-22T04:11:12;6.13;;;3.45;;
76127;SDS011;64873;50.102;14.434;2023-11-22T04:13:38;6.20;;;4.18;;
76127;SDS011;64873;50.102;14.434;2023-11-22T04:16:04;9.13;;;5.20;;
76127;SDS011;64873;50.102;14.434;2023-11-22T04:18:36;6.65;;;4.35;;
76127;SDS011;64873;50.102;14.434;2023-11-22T04:21:02;7.07;;;3.83;;
76127;SDS011;64873;50.102;14.434;2023-11-22T04:23:30;7.93;;;5.18;;
76127;SDS011;64873;50.102;14.434;2023-11-22T04:26:01;8.10;;;5.32;;
76127;SDS011;64873;50.102;14.434;2023-11-22T04:28:27;10.43;;;6.10;;
76127;SDS011;64873;50.102;14.434;2023-11-22T04:30:54;9.88;;;5.72;;
76127;SDS011;64873;50.102;14.434;2023-11-22T04:33:20;9.77;;;4.75;;
76127;SDS011;64873;50.102;14.434;2023-11-22T04:35:46;11.30;;;5.65;;
76127;SDS011;64873;50.102;14.434;2023-11-22T04:38:13;7.93;;;5.03;;
76127;SDS011;64873;50.102;14.434;2023-11-22T04:40:38;9.43;;;5.55;;
76127;SDS011;64873;50.102;14.434;2023-11-22T04:43:03;5.20;;;3.42;;
76127;SDS011;64873;50.102;14.434;2023-11-22T04:45:29;7.88;;;3.88;;
76127;SDS011;64873;50.102;14.434;2023-11-22T04:47:54;12.05;;;6.80;;
76127;SDS011;64873;50.102;14.434;2023-11-22T04:50:22;9.15;;;5.53;;
76127;SDS011;64873;50.102;14.434;2023-11-22T04:52:49;6.38;;;3.88;;
76127;SDS011;64873;50.102;14.434;2023-11-22T04:55:15;7.72;;;4.95;;
76127;SDS011;64873;50.102;14.434;2023-11-22T04:57:40;9.20;;;5.68;;
76127;SDS011;64873;50.102;14.434;2023-11-22T05:00:06;10.98;;;5.93;;
76127;SDS011;64873;50.102;14.434;2023-11-22T05:02:32;8.70;;;4.80;;
76127;SDS011;64873;50.102;14.434;2023-11-22T05:04:58;9.88;;;5.53;;
76127;SDS011;64873;50.102;14.434;2023-11-22T05:07:23;7.70;;;4.53;;
76127;SDS011;64873;50.102;14.434;2023-11-22T05:09:48;17.98;;;5.40;;
76127;SDS011;64873;50.102;14.434;2023-11-22T05:12:14;11.48;;;7.30;;
76127;SDS011;64873;50.102;14.434;2023-11-22T05:14:39;11.18;;;4.28;;
76127;SDS011;64873;50.102;14.434;2023-11-22T05:17:05;6.03;;;4.00;;
76127;SDS011;64873;50.102;14.434;2023-11-22T05:19:31;8.52;;;5.05;;
76127;SDS011;64873;50.102;14.434;2023-11-22T05:21:56;11.85;;;5.50;;
76127;SDS011;64873;50.102;14.434;2023-11-22T05:24:22;12.82;;;7.28;;
76127;SDS011;64873;50.102;14.434;2023-11-22T05:26:48;4.65;;;3.30;;
76127;SDS011;64873;50.102;14.434;2023-11-22T05:29:13;10.05;;;5.68;;
76127;SDS011;64873;50.102;14.434;2023-11-22T05:31:39;11.52;;;6.78;;
76127;SDS011;64873;50.102;14.434;2023-11-22T05:34:04;8.73;;;4.90;;
76127;SDS011;64873;50.102;14.434;2023-11-22T05:36:30;11.73;;;6.03;;
76127;SDS011;64873;50.102;14.434;2023-11-22T05:38:55;18.65;;;8.73;;
76127;SDS011;64873;50.102;14.434;2023-11-22T05:41:24;10.43;;;5.13;;
76127;SDS011;64873;50.102;14.434;2023-11-22T05:43:53;7.40;;;4.68;;
76127;SDS011;64873;50.102;14.434;2023-11-22T05:46:22;16.50;;;9.00;;
76127;SDS011;64873;50.102;14.434;2023-11-22T05:48:53;7.85;;;4.47;;
76127;SDS011;64873;50.102;14.434;2023-11-22T05:51:19;6.80;;;4.55;;
76127;SDS011;64873;50.102;14.434;2023-11-22T05:53:45;9.68;;;5.43;;
76127;SDS011;64873;50.102;14.434;2023-11-22T05:56:11;5.75;;;3.60;;
76127;SDS011;64873;50.102;14.434;2023-11-22T05:58:37;9.10;;;5.05;;
76127;SDS011;64873;50.102;14.434;2023-11-22T06:01:05;12.18;;;6.72;;
76127;SDS011;64873;50.102;14.434;2023-11-22T06:03:31;5.88;;;3.78;;
76127;SDS011;64873;50.102;14.434;2023-11-22T06:05:57;7.00;;;4.40;;
76127;SDS011;64873;50.102;14.434;2023-11-22T06:08:25;7.38;;;4.38;;
76127;SDS011;64873;50.102;14.434;2023-11-22T06:10:50;12.48;;;7.10;;
76127;SDS011;64873;50.102;14.434;2023-11-22T06:13:18;8.98;;;5.65;;
76127;SDS011;64873;50.102;14.434;2023-11-22T06:15:43;6.90;;;4.78;;
76127;SDS011;64873;50.102;14.434;2023-11-22T06:18:10;12.88;;;7.55;;
76127;SDS011;64873;50.102;14.434;2023-11-22T06:20:35;13.77;;;7.65;;
76127;SDS011;64873;50.102;14.434;2023-11-22T06:23:00;13.65;;;8.00;;
76127;SDS011;64873;50.102;14.434;2023-11-22T06:25:26;13.73;;;7.57;;
76127;SDS011;64873;50.102;14.434;2023-11-22T06:27:52;8.90;;;5.47;;
76127;SDS011;64873;50.102;14.434;2023-11-22T06:30:17;11.80;;;6.88;;
76127;SDS011;64873;50.102;14.434;2023-11-22T06:32:43;10.43;;;5.38;;
76127;SDS011;64873;50.102;14.434;2023-11-22T06:35:09;12.70;;;6.97;;
76127;SDS011;64873;50.102;14.434;2023-11-22T06:37:36;9.20;;;6.10;;
76127;SDS011;64873;50.102;14.434;2023-11-22T06:40:02;10.45;;;4.90;;
76127;SDS011;64873;50.102;14.434;2023-11-22T06:42:29;11.23;;;5.97;;
76127;SDS011;64873;50.102;14.434;2023-11-22T06:44:54;11.60;;;6.53;;
76127;SDS011;64873;50.102;14.434;2023-11-22T06:47:23;14.50;;;7.05;;
76127;SDS011;64873;50.102;14.434;2023-11-22T06:49:48;5.22;;;3.35;;
76127;SDS011;64873;50.102;14.434;2023-11-22T06:52:15;13.75;;;7.00;;
76127;SDS011;64873;50.102;14.434;2023-11-22T06:54:42;8.48;;;5.78;;
76127;SDS011;64873;50.102;14.434;2023-11-22T06:57:07;11.35;;;5.28;;
76127;SDS011;64873;50.102;14.434;2023-11-22T06:59:33;11.57;;;6.72;;
76127;SDS011;64873;50.102;14.434;2023-11-22T07:01:58;13.75;;;7.55;;
76127;SDS011;64873;50.102;14.434;2023-11-22T07:04:24;8.23;;;4.80;;
76127;SDS011;64873;50.102;14.434;2023-11-22T07:06:49;13.00;;;7.38;;
76127;SDS011;64873;50.102;14.434;2023-11-22T07:09:15;10.63;;;6.00;;
76127;SDS011;64873;50.102;14.434;2023-11-22T07:11:40;16.45;;;7.90;;
76127;SDS011;64873;50.102;14.434;2023-11-22T07:14:06;9.73;;;5.25;;
76127;SDS011;64873;50.102;14.434;2023-11-22T07:16:32;10.77;;;6.15;;
76127;SDS011;64873;50.102;14.434;2023-11-22T07:18:58;5.40;;;3.67;;
76127;SDS011;64873;50.102;14.434;2023-11-22T07:21:29;8.45;;;4.75;;
76127;SDS011;64873;50.102;14.434;2023-11-22T07:23:57;15.27;;;6.93;;
76127;SDS011;64873;50.102;14.434;2023-11-22T07:26:24;9.63;;;5.38;;
76127;SDS011;64873;50.102;14.434;2023-11-22T07:28:52;12.02;;;6.07;;
76127;SDS011;64873;50.102;14.434;2023-11-22T07:31:18;16.77;;;6.28;;
76127;SDS011;64873;50.102;14.434;2023-11-22T07:33:44;9.25;;;4.93;;
76127;SDS011;64873;50.102;14.434;2023-11-22T07:36:10;12.93;;;7.93;;
76127;SDS011;64873;50.102;14.434;2023-11-22T07:38:39;6.85;;;4.88;;
76127;SDS011;64873;50.102;14.434;2023-11-22T07:41:06;18.42;;;9.25;;
76127;SDS011;64873;50.102;14.434;2023-11-22T07:43:32;11.07;;;5.78;;
76127;SDS011;64873;50.102;14.434;2023-11-22T07:45:57;15.20;;;7.53;;
76127;SDS011;64873;50.102;14.434;2023-11-22T07:48:25;17.10;;;7.80;;
76127;SDS011;64873;50.102;14.434;2023-11-22T07:50:50;12.43;;;5.22;;
76127;SDS011;64873;50.102;14.434;2023-11-22T07:53:17;13.20;;;6.95;;
76127;SDS011;64873;50.102;14.434;2023-11-22T07:55:42;8.45;;;4.68;;
76127;SDS011;64873;50.102;14.434;2023-11-22T07:58:08;12.43;;;6.10;;
76127;SDS011;64873;50.102;14.434;2023-11-22T08:00:34;18.88;;;6.80;;
76127;SDS011;64873;50.102;14.434;2023-11-22T08:03:02;14.20;;;7.10;;
76127;SDS011;64873;50.102;14.434;2023-11-22T08:05:31;20.00;;;9.70;;
76127;SDS011;64873;50.102;14.434;2023-11-22T08:08:04;16.73;;;9.38;;
76127;SDS011;64873;50.102;14.434;2023-11-22T08:10:36;15.10;;;8.90;;
76127;SDS011;64873;50.102;14.434;2023-11-22T08:13:03;14.95;;;8.13;;
76127;SDS011;64873;50.102;14.434;2023-11-22T08:15:29;13.15;;;6.07;;
76127;SDS011;64873;50.102;14.434;2023-11-22T08:17:56;19.75;;;9.35;;
76127;SDS011;64873;50.102;14.434;2023-11-22T08:20:23;14.45;;;7.95;;
76127;SDS011;64873;50.102;14.434;2023-11-22T08:22:50;19.73;;;9.30;;
76127;SDS011;64873;50.102;14.434;2023-11-22T08:25:15;12.93;;;7.00;;
76127;SDS011;64873;50.102;14.434;2023-11-22T08:27:41;13.75;;;7.25;;
76127;SDS011;64873;50.102;14.434;2023-11-22T08:30:10;16.70;;;7.10;;
76127;SDS011;64873;50.102;14.434;2023-11-22T08:32:41;25.67;;;12.27;;
76127;SDS011;64873;50.102;14.434;2023-11-22T08:35:13;14.77;;;6.22;;
76127;SDS011;64873;50.102;14.434;2023-11-22T08:37:39;15.77;;;6.55;;
76127;SDS011;64873;50.102;14.434;2023-11-22T08:40:07;19.88;;;8.27;;
76127;SDS011;64873;50.102;14.434;2023-11-22T08:42:33;12.82;;;7.43;;
76127;SDS011;64873;50.102;14.434;2023-11-22T08:45:00;11.68;;;7.20;;
76127;SDS011;64873;50.102;14.434;2023-11-22T08:47:27;17.80;;;9.25;;
76127;SDS011;64873;50.102;14.434;2023-11-22T08:49:53;21.30;;;11.30;;
76127;SDS011;64873;50.102;14.434;2023-11-22T08:52:18;18.05;;;10.55;;
76127;SDS011;64873;50.102;14.434;2023-11-22T08:54:45;14.70;;;7.72;;
76127;SDS011;64873;50.102;14.434;2023-11-22T08:57:11;17.73;;;8.63;;
76127;SDS011;64873;50.102;14.434;2023-11-22T08:59:37;13.77;;;7.78;;
76127;SDS011;64873;50.102;14.434;2023-11-22T09:02:03;24.08;;;10.25;;
76127;SDS011;64873;50.102;14.434;2023-11-22T09:04:29;18.63;;;9.32;;
76127;SDS011;64873;50.102;14.434;2023-11-22T09:06:56;21.38;;;9.82;;
76127;SDS011;64873;50.102;14.434;2023-11-22T09:09:23;14.02;;;7.60;;
76127;SDS011;64873;50.102;14.434;2023-11-22T09:11:56;19.85;;;10.25;;
76127;SDS011;64873;50.102;14.434;2023-11-22T09:14:24;14.48;;;7.50;;
76127;SDS011;64873;50.102;14.434;2023-11-22T09:16:50;19.13;;;10.98;;
76127;SDS011;64873;50.102;14.434;2023-11-22T09:19:20;18.13;;;8.98;;
76127;SDS011;64873;50.102;14.434;2023-11-22T09:21:50;15.93;;;7.05;;
76127;SDS011;64873;50.102;14.434;2023-11-22T09:24:16;19.85;;;9.57;;
76127;SDS011;64873;50.102;14.434;2023-11-22T09:26:42;17.48;;;8.48;;
76127;SDS011;64873;50.102;14.434;2023-11-22T09:29:08;13.85;;;8.13;;
76127;SDS011;64873;50.102;14.434;2023-11-22T09:31:35;22.88;;;10.75;;
76127;SDS011;64873;50.102;14.434;2023-11-22T09:34:00;9.32;;;5.50;;
76127;SDS011;64873;50.102;14.434;2023-11-22T09:36:28;14.38;;;8.07;;
76127;SDS011;64873;50.102;14.434;2023-11-22T09:38:54;14.27;;;7.95;;
76127;SDS011;64873;50.102;14.434;2023-11-22T09:41:20;25.90;;;10.90;;
76127;SDS011;64873;50.102;14.434;2023-11-22T09:43:46;22.38;;;11.10;;
76127;SDS011;64873;50.102;14.434;2023-11-22T09:46:14;10.18;;;5.15;;
76127;SDS011;64873;50.102;14.434;2023-11-22T09:48:42;17.02;;;8.80;;
76127;SDS011;64873;50.102;14.434;2023-11-22T09:54:00;21.90;;;11.07;;
76127;SDS011;64873;50.102;14.434;2023-11-22T09:56:29;15.02;;;7.97;;
76127;SDS011;64873;50.102;14.434;2023-11-22T09:58:57;24.67;;;12.27;;
76127;SDS011;64873;50.102;14.434;2023-11-22T10:01:25;15.80;;;7.32;;
76127;SDS011;64873;50.102;14.434;2023-11-22T10:03:54;15.95;;;7.93;;
76127;SDS011;64873;50.102;14.434;2023-11-22T10:06:19;17.75;;;7.80;;
76127;SDS011;64873;50.102;14.434;2023-11-22T10:08:45;21.98;;;10.40;;
76127;SDS011;64873;50.102;14.434;2023-11-22T10:11:17;20.08;;;9.95;;
76127;SDS011;64873;50.102;14.434;2023-11-22T10:13:43;14.30;;;7.93;;
76127;SDS011;64873;50.102;14.434;2023-11-22T10:16:13;17.40;;;9.07;;
76127;SDS011;64873;50.102;14.434;2023-11-22T10:18:44;11.88;;;6.13;;
76127;SDS011;64873;50.102;14.434;2023-11-22T10:21:31;21.73;;;6.10;;
76127;SDS011;64873;50.102;14.434;2023-11-22T10:23:57;7.97;;;4.65;;
76127;SDS011;64873;50.102;14.434;2023-11-22T10:26:27;21.83;;;9.57;;
76127;SDS011;64873;50.102;14.434;2023-11-22T10:28:53;16.00;;;8.80;;
76127;SDS011;64873;50.102;14.434;2023-11-22T10:31:20;22.05;;;10.50;;
76127;SDS011;64873;50.102;14.434;2023-11-22T10:33:49;10.23;;;5.72;;
76127;SDS011;64873;50.102;14.434;2023-11-22T10:36:15;14.80;;;6.25;;
76127;SDS011;64873;50.102;14.434;2023-11-22T10:38:46;17.00;;;7.78;;
76127;SDS011;64873;50.102;14.434;2023-11-22T10:41:12;18.58;;;8.52;;
76127;SDS011;64873;50.102;14.434;2023-11-22T10:43:38;24.25;;;12.00;;
76127;SDS011;64873;50.102;14.434;2023-11-22T10:46:06;14.45;;;7.80;;
76127;SDS011;64873;50.102;14.434;2023-11-22T10:48:36;23.63;;;8.90;;
76127;SDS011;64873;50.102;14.434;2023-11-22T10:51:02;20.92;;;10.55;;
76127;SDS011;64873;50.102;14.434;2023-11-22T10:53:33;14.68;;;6.85;;
76127;SDS011;64873;50.102;14.434;2023-11-22T10:56:19;17.77;;;9.88;;
76127;SDS011;64873;50.102;14.434;2023-11-22T10:58:51;13.52;;;7.50;;
76127;SDS011;64873;50.102;14.434;2023-11-22T11:01:24;25.13;;;11.98;;
76127;SDS011;64873;50.102;14.434;2023-11-22T11:06:20;8.40;;;4.03;;
76127;SDS011;64873;50.102;14.434;2023-11-22T11:08:53;13.30;;;5.68;;
76127;SDS011;64873;50.102;14.434;2023-11-22T11:11:22;19.58;;;10.45;;
76127;SDS011;64873;50.102;14.434;2023-11-22T11:13:50;18.08;;;9.57;;
76127;SDS011;64873;50.102;14.434;2023-11-22T11:16:17;20.67;;;9.45;;
76127;SDS011;64873;50.102;14.434;2023-11-22T11:18:44;16.95;;;8.10;;
76127;SDS011;64873;50.102;14.434;2023-11-22T11:21:09;13.95;;;6.65;;
76127;SDS011;64873;50.102;14.434;2023-11-22T11:23:38;31.02;;;11.13;;
76127;SDS011;64873;50.102;14.434;2023-11-22T11:26:15;23.88;;;11.05;;
76127;SDS011;64873;50.102;14.434;2023-11-22T11:28:43;13.50;;;7.22;;
76127;SDS011;64873;50.102;14.434;2023-11-22T11:31:10;17.85;;;8.70;;
76127;SDS011;64873;50.102;14.434;2023-11-22T11:33:54;10.43;;;6.03;;
76127;SDS011;64873;50.102;14.434;2023-11-22T11:36:24;19.13;;;8.13;;
76127;SDS011;64873;50.102;14.434;2023-11-22T11:38:52;12.45;;;6.57;;
76127;SDS011;64873;50.102;14.434;2023-11-22T11:41:29;21.40;;;9.35;;
76127;SDS011;64873;50.102;14.434;2023-11-22T11:44:03;12.57;;;6.00;;
76127;SDS011;64873;50.102;14.434;2023-11-22T11:46:32;16.05;;;7.65;;
76127;SDS011;64873;50.102;14.434;2023-11-22T11:48:58;17.58;;;9.00;;
76127;SDS011;64873;50.102;14.434;2023-11-22T11:53:50;13.88;;;7.97;;
76127;SDS011;64873;50.102;14.434;2023-11-22T11:56:16;18.55;;;8.68;;
76127;SDS011;64873;50.102;14.434;2023-11-22T11:58:45;20.35;;;8.93;;
76127;SDS011;64873;50.102;14.434;2023-11-22T12:01:15;22.83;;;10.27;;
76127;SDS011;64873;50.102;14.434;2023-11-22T12:03:41;14.60;;;7.63;;
76127;SDS011;64873;50.102;14.434;2023-11-22T12:06:08;22.38;;;10.80;;
76127;SDS011;64873;50.102;14.434;2023-11-22T12:08:34;18.92;;;8.48;;
76127;SDS011;64873;50.102;14.434;2023-11-22T12:11:03;21.90;;;10.40;;
76127;SDS011;64873;50.102;14.434;2023-11-22T12:13:31;28.73;;;8.77;;
76127;SDS011;64873;50.102;14.434;2023-11-22T12:15:57;17.38;;;8.73;;
76127;SDS011;64873;50.102;14.434;2023-11-22T12:18:23;26.10;;;9.43;;
76127;SDS011;64873;50.102;14.434;2023-11-22T12:20:58;20.92;;;8.63;;
76127;SDS011;64873;50.102;14.434;2023-11-22T12:23:25;9.98;;;5.05;;
76127;SDS011;64873;50.102;14.434;2023-11-22T12:25:56;20.05;;;8.25;;
76127;SDS011;64873;50.102;14.434;2023-11-22T12:28:28;18.48;;;8.65;;
76127;SDS011;64873;50.102;14.434;2023-11-22T12:33:20;9.18;;;4.95;;
76127;SDS011;64873;50.102;14.434;2023-11-22T12:35:46;13.43;;;6.50;;
76127;SDS011;64873;50.102;14.434;2023-11-22T12:38:13;23.67;;;8.73;;
76127;SDS011;64873;50.102;14.434;2023-11-22T12:40:48;21.00;;;11.20;;
76127;SDS011;64873;50.102;14.434;2023-11-22T12:43:13;18.40;;;9.00;;
76127;SDS011;64873;50.102;14.434;2023-11-22T12:45:40;20.02;;;9.60;;
76127;SDS011;64873;50.102;14.434;2023-11-22T12:48:21;23.13;;;10.98;;
76127;SDS011;64873;50.102;14.434;2023-11-22T12:50:52;18.38;;;9.38;;
76127;SDS011;64873;50.102;14.434;2023-11-22T12:53:19;19.67;;;8.90;;
76127;SDS011;64873;50.102;14.434;2023-11-22T12:55:47;27.25;;;8.50;;
76127;SDS011;64873;50.102;14.434;2023-11-22T12:58:20;15.63;;;8.60;;
76127;SDS011;64873;50.102;14.434;2023-11-22T13:00:50;21.08;;;10.25;;
76127;SDS011;64873;50.102;14.434;2023-11-22T13:03:23;19.95;;;9.45;;
76127;SDS011;64873;50.102;14.434;2023-11-22T13:05:49;21.85;;;9.40;;
76127;SDS011;64873;50.102;14.434;2023-11-22T13:08:17;20.08;;;9.07;;
76127;SDS011;64873;50.102;14.434;2023-11-22T13:10:46;16.33;;;8.75;;
76127;SDS011;64873;50.102;14.434;2023-11-22T13:13:14;15.68;;;9.10;;
76127;SDS011;64873;50.102;14.434;2023-11-22T13:15:39;9.07;;;5.25;;
76127;SDS011;64873;50.102;14.434;2023-11-22T13:18:07;16.38;;;8.02;;
76127;SDS011;64873;50.102;14.434;2023-11-22T13:20:34;17.92;;;8.70;;
76127;SDS011;64873;50.102;14.434;2023-11-22T13:23:00;17.65;;;9.73;;
76127;SDS011;64873;50.102;14.434;2023-11-22T13:25:26;17.27;;;7.78;;
76127;SDS011;64873;50.102;14.434;2023-11-22T13:27:51;9.40;;;4.65;;
76127;SDS011;64873;50.102;14.434;2023-11-22T13:30:19;16.38;;;8.05;;
76127;SDS011;64873;50.102;14.434;2023-11-22T13:32:48;19.50;;;9.02;;
76127;SDS011;64873;50.102;14.434;2023-11-22T13:35:15;22.65;;;9.32;;
76127;SDS011;64873;50.102;14.434;2023-11-22T13:37:42;20.60;;;9.10;;
76127;SDS011;64873;50.102;14.434;2023-11-22T13:40:09;20.42;;;9.68;;
76127;SDS011;64873;50.102;14.434;2023-11-22T13:45:13;18.25;;;7.85;;
76127;SDS011;64873;50.102;14.434;2023-11-22T13:47:45;18.77;;;8.80;;
76127;SDS011;64873;50.102;14.434;2023-11-22T13:50:15;23.23;;;9.13;;
76127;SDS011;64873;50.102;14.434;2023-11-22T13:52:50;19.43;;;9.83;;
76127;SDS011;64873;50.102;14.434;2023-11-22T13:55:16;21.65;;;8.57;;
76127;SDS011;64873;50.102;14.434;2023-11-22T13:57:47;21.63;;;9.88;;
76127;SDS011;64873;50.102;14.434;2023-11-22T14:00:14;18.65;;;9.32;;
76127;SDS011;64873;50.102;14.434;2023-11-22T14:02:44;15.80;;;7.07;;
76127;SDS011;64873;50.102;14.434;2023-11-22T14:05:17;15.88;;;8.02;;
76127;SDS011;64873;50.102;14.434;2023-11-22T14:07:43;16.85;;;9.07;;
76127;SDS011;64873;50.102;14.434;2023-11-22T14:10:09;21.20;;;9.45;;
76127;SDS011;64873;50.102;14.434;2023-11-22T14:12:36;16.20;;;7.40;;
76127;SDS011;64873;50.102;14.434;2023-11-22T14:15:02;20.70;;;9.18;;
76127;SDS011;64873;50.102;14.434;2023-11-22T14:17:31;16.08;;;8.07;;
76127;SDS011;64873;50.102;14.434;2023-11-22T14:19:57;17.58;;;9.02;;
76127;SDS011;64873;50.102;14.434;2023-11-22T14:22:23;15.23;;;7.13;;
76127;SDS011;64873;50.102;14.434;2023-11-22T14:24:49;14.05;;;7.45;;
76127;SDS011;64873;50.102;14.434;2023-11-22T14:27:16;19.27;;;9.30;;
76127;SDS011;64873;50.102;14.434;2023-11-22T14:29:42;19.23;;;9.10;;
76127;SDS011;64873;50.102;14.434;2023-11-22T14:32:09;22.63;;;9.05;;
76127;SDS011;64873;50.102;14.434;2023-11-22T14:34:34;17.75;;;9.27;;
76127;SDS011;64873;50.102;14.434;2023-11-22T14:37:00;18.77;;;7.68;;